Time;durP1;ratioP1;P1;durP2;ratioP2;P2;SDS_P1;SDS_P2;PMS_P1;PMS_P2;Temp;Humidity;BMP_temperature;BMP_pressure;BME280_temperature;BME280_humidity;BME280_pressure;Samples;Min_cycle;Max_cycle;Signal;HPM_P1;HPM_P2
2023/03/04 00:00:19;;;;;;;0.60;0.40;;;2.40;99.90;;;;;;4906426;29;20554;-77
2023/03/04 00:02:48;;;;;;;0.50;0.20;;;;;;;;;;4917808;29;20445;-77
2023/03/04 00:05:17;;;;;;;0.60;0.60;;;2.40;99.90;;;;;;4916605;29;20539;-78
2023/03/04 00:07:45;;;;;;;0.80;0.57;;;2.30;99.90;;;;;;4905118;29;20489;-77
2023/03/04 00:10:12;;;;;;;0.50;0.10;;;2.30;99.90;;;;;;4918399;29;20456;-77
2023/03/04 00:12:41;;;;;;;0.50;0.20;;;2.30;99.90;;;;;;4917815;29;20469;-77
2023/03/04 00:15:09;;;;;;;0.50;0.20;;;2.30;99.90;;;;;;4919315;29;20507;-77
2023/03/04 00:17:37;;;;;;;1.80;1.03;;;2.20;99.90;;;;;;4919917;29;20460;-77
2023/03/04 00:20:09;;;;;;;0.50;0.20;;;2.20;99.90;;;;;;4925893;29;20470;-76
2023/03/04 00:22:36;;;;;;;0.50;0.10;;;2.20;99.90;;;;;;4929131;29;20456;-77
2023/03/04 00:25:05;;;;;;;0.67;0.20;;;2.20;99.90;;;;;;4930750;29;20481;-77
2023/03/04 00:27:33;;;;;;;0.70;0.50;;;2.20;99.90;;;;;;4931267;29;20468;-79
2023/03/04 00:30:01;;;;;;;0.60;0.57;;;2.20;99.90;;;;;;4927259;29;20450;-78
2023/03/04 00:32:29;;;;;;;0.50;0.10;;;2.20;99.90;;;;;;4925084;29;20817;-78
2023/03/04 00:34:59;;;;;;;0.50;0.10;;;2.20;99.90;;;;;;4929186;29;20881;-78
2023/03/04 00:37:28;;;;;;;0.70;0.37;;;;;;;;;;4923975;29;20481;-78
2023/03/04 00:40:00;;;;;;;0.50;0.10;;;2.20;99.90;;;;;;4925596;29;20515;-77
2023/03/04 00:42:28;;;;;;;0.50;0.10;;;2.10;99.90;;;;;;4923506;29;20439;-77
2023/03/04 00:45:00;;;;;;;0.60;0.23;;;;;;;;;;4928543;29;20461;-78
2023/03/04 00:47:28;;;;;;;0.50;0.10;;;2.10;99.90;;;;;;4927664;29;20543;-77
2023/03/04 00:49:56;;;;;;;0.50;0.20;;;2.10;99.90;;;;;;4922215;29;20461;-77
2023/03/04 00:52:24;;;;;;;0.50;0.10;;;2.10;99.90;;;;;;4923726;29;20481;-77
2023/03/04 00:54:54;;;;;;;0.50;0.10;;;2.10;99.90;;;;;;4930257;29;20557;-78
2023/03/04 00:57:21;;;;;;;0.60;0.30;;;2.10;99.90;;;;;;4932966;29;20459;-77
2023/03/04 00:59:49;;;;;;;0.90;0.83;;;3.20;99.90;;;;;;4934506;29;20449;-77
2023/03/04 05:02:56;;;;;;;0.50;0.10;;;3.50;99.90;;;;;;4948129;29;20469;-73
2023/03/04 05:05:24;;;;;;;0.50;0.10;;;3.40;99.90;;;;;;4950342;29;20447;-75
2023/03/04 05:07:52;;;;;;;0.50;0.10;;;3.30;99.90;;;;;;4940960;29;20490;-75
2023/03/04 05:10:20;;;;;;;0.50;0.10;;;3.30;99.90;;;;;;4933640;29;20452;-75
2023/03/04 05:12:48;;;;;;;0.50;0.10;;;3.30;99.90;;;;;;4957193;29;20471;-79
2023/03/04 05:15:16;;;;;;;3.43;3.23;;;3.40;99.90;;;;;;5006664;23;20494;-78
2023/03/04 05:17:44;;;;;;;0.50;0.10;;;3.40;99.90;;;;;;4986846;28;20459;-77
2023/03/04 05:20:14;;;;;;;0.50;0.10;;;3.50;99.90;;;;;;4985341;28;20538;-77
2023/03/04 05:22:42;;;;;;;0.50;0.10;;;3.50;99.90;;;;;;4985885;28;20975;-77
2023/03/04 05:25:10;;;;;;;0.57;0.33;;;3.50;99.90;;;;;;4992567;28;20476;-77
2023/03/04 05:27:38;;;;;;;3.27;1.07;;;3.50;99.90;;;;;;5002358;28;20509;-76
2023/03/04 05:30:07;;;;;;;0.50;0.10;;;3.50;99.90;;;;;;5000103;28;20441;-75
2023/03/04 05:32:35;;;;;;;0.50;0.10;;;3.50;99.90;;;;;;5000979;28;20471;-76
2023/03/04 05:35:03;;;;;;;0.50;0.10;;;3.50;99.90;;;;;;4989670;28;20466;-78
2023/03/04 05:37:32;;;;;;;0.50;0.10;;;3.50;99.90;;;;;;4986174;28;20440;-75
2023/03/04 05:40:00;;;;;;;0.50;0.10;;;3.60;99.90;;;;;;4986013;28;20460;-77
2023/03/04 05:42:28;;;;;;;0.50;0.10;;;3.60;99.90;;;;;;4988417;28;20443;-76
2023/03/04 05:44:56;;;;;;;0.50;0.10;;;3.60;99.90;;;;;;4992456;28;20481;-76
2023/03/04 05:47:24;;;;;;;0.50;0.10;;;3.60;99.90;;;;;;4988893;28;20481;-75
2023/03/04 05:49:53;;;;;;;0.50;0.10;;;3.60;99.90;;;;;;4993786;28;20544;-77
2023/03/04 05:52:21;;;;;;;0.50;0.10;;;3.60;99.90;;;;;;4993709;28;20446;-76
2023/03/04 05:54:50;;;;;;;0.50;0.10;;;3.60;99.90;;;;;;4985159;28;20473;-76
2023/03/04 05:57:18;;;;;;;0.50;0.10;;;3.60;99.90;;;;;;4983388;28;20464;-75
2023/03/04 05:59:46;;;;;;;0.50;0.10;;;3.60;99.90;;;;;;4993795;28;20821;-76
2023/03/04 06:02:15;;;;;;;12.30;11.43;;;3.70;99.90;;;;;;4986927;28;20488;-75
2023/03/04 06:04:43;;;;;;;0.60;0.47;;;3.70;99.90;;;;;;4991934;28;20483;-76
2023/03/04 06:07:11;;;;;;;0.50;0.10;;;3.70;99.90;;;;;;4997574;28;20448;-77
2023/03/04 06:09:39;;;;;;;0.50;0.10;;;3.70;99.90;;;;;;4986802;28;20468;-77
2023/03/04 06:12:08;;;;;;;0.50;0.10;;;3.70;99.90;;;;;;4985377;28;20451;-77
2023/03/04 06:14:36;;;;;;;9.80;9.23;;;3.70;99.90;;;;;;4979177;28;20981;-76
2023/03/04 06:17:04;;;;;;;0.50;0.10;;;3.70;99.90;;;;;;4997525;28;20799;-76
2023/03/04 06:19:32;;;;;;;0.60;0.40;;;3.60;99.90;;;;;;4996092;28;20447;-77
2023/03/04 06:22:00;;;;;;;0.67;0.20;;;3.60;99.90;;;;;;4995236;28;20455;-75
2023/03/04 06:24:28;;;;;;;0.60;0.10;;;3.60;99.90;;;;;;4994692;28;20903;-76
2023/03/04 06:26:56;;;;;;;0.63;0.57;;;3.60;99.90;;;;;;4995032;28;20452;-78
2023/03/04 06:29:25;;;;;;;0.50;0.10;;;3.60;99.90;;;;;;4994657;28;20523;-76
2023/03/04 06:31:53;;;;;;;0.50;0.10;;;3.60;99.90;;;;;;4995455;28;20455;-79
2023/03/04 06:34:22;;;;;;;0.60;0.40;;;3.60;99.90;;;;;;4995721;28;20475;-76
2023/03/04 06:36:50;;;;;;;0.50;0.10;;;3.60;99.90;;;;;;4982852;28;20448;-76
2023/03/04 06:39:18;;;;;;;0.50;0.10;;;3.60;99.90;;;;;;4998327;28;20444;-77
2023/03/04 06:41:46;;;;;;;0.50;0.10;;;3.70;99.90;;;;;;4990693;28;20459;-75
2023/03/04 06:44:14;;;;;;;0.50;0.10;;;3.70;99.90;;;;;;4986119;28;20449;-77
2023/03/04 06:46:43;;;;;;;0.63;0.63;;;3.70;99.90;;;;;;4984680;28;20461;-75
2023/03/04 06:49:11;;;;;;;0.50;0.10;;;3.70;99.90;;;;;;4985132;28;20959;-76
2023/03/04 06:51:39;;;;;;;0.50;0.17;;;3.80;99.90;;;;;;4993863;28;20448;-76
2023/03/04 06:54:07;;;;;;;0.50;0.10;;;3.80;99.90;;;;;;4996043;28;20455;-76
2023/03/04 06:56:35;;;;;;;0.50;0.10;;;;;;;;;;4997314;28;20500;-77
2023/03/04 06:59:03;;;;;;;0.50;0.10;;;3.80;99.90;;;;;;4998230;28;20445;-77
2023/03/04 07:01:31;;;;;;;0.60;0.20;;;3.80;99.90;;;;;;5001234;28;20475;-77
2023/03/04 07:04:01;;;;;;;0.50;0.10;;;3.90;99.90;;;;;;4999294;28;20455;-76
2023/03/04 07:06:29;;;;;;;0.50;0.10;;;3.90;99.90;;;;;;4998820;28;20452;-77
2023/03/04 07:08:58;;;;;;;0.50;0.10;;;4.00;99.90;;;;;;5005405;28;20490;-77
2023/03/04 07:11:26;;;;;;;0.50;0.10;;;4.00;99.90;;;;;;4995868;28;20451;-77
2023/03/04 07:13:54;;;;;;;0.50;0.10;;;4.00;99.90;;;;;;4978801;28;20588;-76
2023/03/04 07:16:23;;;;;;;0.50;0.10;;;4.00;99.90;;;;;;4981504;28;20480;-77
2023/03/04 07:18:51;;;;;;;0.50;0.10;;;4.10;99.90;;;;;;4996061;28;20453;-78
2023/03/04 07:21:21;;;;;;;0.50;0.10;;;4.10;99.90;;;;;;4996306;28;20448;-77
2023/03/04 07:23:49;;;;;;;0.60;0.37;;;4.10;99.90;;;;;;5003330;28;20457;-78
2023/03/04 07:26:17;;;;;;;0.50;0.10;;;4.10;99.90;;;;;;4997363;28;20526;-77
2023/03/04 07:28:45;;;;;;;4.73;4.43;;;4.10;99.90;;;;;;4995450;28;20480;-76
2023/03/04 07:31:20;;;;;;;0.50;0.10;;;4.20;99.90;;;;;;4995880;28;20527;-77
2023/03/04 07:33:48;;;;;;;0.50;0.30;;;4.30;99.90;;;;;;4985180;28;20455;-76
2023/03/04 07:36:18;;;;;;;0.97;0.97;;;4.30;99.90;;;;;;4990823;28;20469;-77
2023/03/04 07:38:49;;;;;;;0.53;0.20;;;4.30;99.90;;;;;;5002148;28;20440;-76
2023/03/04 07:41:18;;;;;;;0.50;0.20;;;4.30;99.90;;;;;;5002900;28;20487;-78
2023/03/04 07:43:46;;;;;;;0.50;0.10;;;4.30;99.90;;;;;;4987683;28;20461;-76
2023/03/04 07:46:16;;;;;;;0.50;0.10;;;4.40;99.90;;;;;;4987346;28;20472;-77
2023/03/04 07:48:45;;;;;;;0.50;0.10;;;4.40;99.90;;;;;;4988566;28;20496;-77
2023/03/04 07:51:15;;;;;;;0.50;0.10;;;4.40;99.90;;;;;;5003393;28;20463;-77
2023/03/04 07:53:45;;;;;;;0.50;0.10;;;4.50;99.90;;;;;;5009052;28;20467;-77
2023/03/04 07:56:16;;;;;;;7.83;2.37;;;4.50;99.90;;;;;;5008742;28;20479;-77
2023/03/04 07:58:44;;;;;;;0.50;0.20;;;4.50;99.90;;;;;;5007503;28;20459;-77
2023/03/04 08:01:14;;;;;;;0.50;0.10;;;4.50;99.90;;;;;;4986891;28;20443;-77
2023/03/04 08:03:42;;;;;;;0.70;0.67;;;4.60;99.90;;;;;;5000712;28;20514;-79
2023/03/04 08:06:14;;;;;;;0.50;0.30;;;4.50;99.90;;;;;;5009607;28;20478;-77
2023/03/04 08:08:42;;;;;;;0.50;0.10;;;4.60;99.90;;;;;;5009639;28;20519;-77
2023/03/04 08:11:12;;;;;;;0.50;0.40;;;4.60;99.90;;;;;;5008560;28;20458;-76
2023/03/04 08:13:42;;;;;;;0.50;0.10;;;4.60;99.90;;;;;;5005268;28;20454;-75
2023/03/04 08:16:14;;;;;;;0.50;0.10;;;4.60;99.90;;;;;;5003269;28;21021;-77
2023/03/04 08:18:43;;;;;;;0.50;0.20;;;4.60;99.90;;;;;;5009264;28;20435;-77
2023/03/04 08:21:12;;;;;;;0.50;0.10;;;4.70;99.90;;;;;;5009503;28;20471;-77
2023/03/04 08:23:41;;;;;;;0.50;0.10;;;4.70;99.90;;;;;;5005620;28;20534;-78
2023/03/04 08:26:11;;;;;;;0.60;0.20;;;4.80;99.90;;;;;;5004638;28;20467;-78
2023/03/04 08:28:41;;;;;;;0.50;0.10;;;4.80;99.90;;;;;;5005710;28;20495;-77
2023/03/04 08:31:09;;;;;;;0.50;0.10;;;4.80;99.90;;;;;;4993019;28;20462;-77
2023/03/04 08:33:40;;;;;;;0.50;0.10;;;4.80;99.90;;;;;;4992877;28;20460;-76
2023/03/04 08:36:08;;;;;;;0.50;0.10;;;4.90;99.90;;;;;;5000113;28;20927;-77
2023/03/04 08:38:38;;;;;;;0.50;0.10;;;4.90;99.90;;;;;;5008776;28;20454;-77
2023/03/04 08:41:06;;;;;;;0.50;0.10;;;5.00;99.90;;;;;;5007470;28;20440;-78
2023/03/04 08:43:35;;;;;;;0.50;0.10;;;;;;;;;;5003268;28;20954;-77
2023/03/04 08:46:05;;;;;;;0.50;0.10;;;5.00;99.90;;;;;;4999958;28;20469;-79
2023/03/04 08:48:33;;;;;;;0.53;0.17;;;5.10;99.90;;;;;;5008068;28;20451;-78
2023/03/04 08:51:01;;;;;;;0.50;0.20;;;5.10;99.90;;;;;;5010570;28;20456;-78
2023/03/04 08:53:30;;;;;;;0.50;0.10;;;5.20;99.90;;;;;;5015347;28;20450;-78
2023/03/04 08:55:58;;;;;;;0.50;0.10;;;5.20;99.90;;;;;;5012071;28;20447;-77
2023/03/04 08:58:26;;;;;;;0.50;0.10;;;5.30;99.90;;;;;;5012922;28;20472;-77
2023/03/04 09:00:54;;;;;;;0.50;0.10;;;5.30;99.90;;;;;;5001322;28;20440;-76
2023/03/04 09:03:23;;;;;;;0.50;0.10;;;;;;;;;;4994111;28;20466;-77
2023/03/04 09:05:51;;;;;;;0.50;0.10;;;5.40;99.90;;;;;;4996146;28;20541;-78
2023/03/04 09:08:26;;;;;;;10.20;7.63;;;;;;;;;;5006566;28;20823;-77
2023/03/04 09:10:57;;;;;;;0.50;0.10;;;;;;;;;;4997207;28;20482;-79
2023/03/04 09:13:29;;;;;;;0.50;0.10;;;5.40;99.90;;;;;;5002253;28;20959;-77
2023/03/04 09:15:57;;;;;;;0.50;0.30;;;5.50;99.90;;;;;;5004733;28;20494;-75
2023/03/04 09:18:38;;;;;;;0.50;0.10;;;5.50;99.90;;;;;;4987254;28;20479;-77
2023/03/04 09:21:08;;;;;;;0.50;0.10;;;;;;;;;;4996904;28;20547;-76
2023/03/04 09:23:37;;;;;;;0.60;0.20;;;5.50;99.90;;;;;;5000081;28;20440;-75
2023/03/04 09:26:14;;;;;;;0.50;0.30;;;;;;;;;;4997898;28;20456;-77
2023/03/04 09:28:42;;;;;;;0.50;0.10;;;5.50;99.90;;;;;;4997176;28;20451;-78
2023/03/04 09:31:14;;;;;;;0.50;0.10;;;5.50;99.90;;;;;;4996586;28;20479;-76
2023/03/04 09:33:43;;;;;;;0.50;0.10;;;5.50;99.90;;;;;;4996332;28;20453;-78
2023/03/04 09:36:13;;;;;;;0.50;0.10;;;5.50;99.90;;;;;;4996252;28;20475;-78
2023/03/04 09:38:42;;;;;;;0.50;0.30;;;5.50;99.90;;;;;;5000860;28;20843;-76
2023/03/04 09:41:15;;;;;;;0.50;0.10;;;5.50;99.90;;;;;;4999411;28;20452;-77
2023/03/04 09:43:45;;;;;;;0.50;0.10;;;5.60;99.90;;;;;;4999320;28;20463;-77
2023/03/04 09:46:16;;;;;;;0.50;0.10;;;5.60;99.90;;;;;;4999448;28;20464;-79
2023/03/04 09:48:48;;;;;;;0.70;0.53;;;5.60;99.90;;;;;;4999914;28;20489;-78
2023/03/04 09:51:21;;;;;;;1.27;0.87;;;5.70;99.90;;;;;;4979929;28;20499;-79
2023/03/04 09:54:05;;;;;;;1.23;1.17;;;5.70;99.90;;;;;;4979442;28;20460;-78
2023/03/04 09:56:39;;;;;;;0.60;0.53;;;5.70;99.90;;;;;;5007180;28;20497;-77
2023/03/04 09:59:24;;;;;;;0.50;0.10;;;5.80;99.90;;;;;;5008223;28;20464;-77
2023/03/04 10:01:54;;;;;;;0.50;0.10;;;5.80;99.90;;;;;;5003765;28;21078;-79
2023/03/04 10:04:33;;;;;;;0.60;0.37;;;5.90;99.90;;;;;;5000607;28;20451;-79
2023/03/04 10:07:02;;;;;;;0.50;0.10;;;;;;;;;;5009082;28;20461;-77
2023/03/04 10:09:40;;;;;;;15.23;2.87;;;5.90;99.90;;;;;;5005640;28;20456;-78
2023/03/04 10:12:13;;;;;;;0.50;0.10;;;5.90;99.90;;;;;;4987247;28;20473;-79
2023/03/04 10:14:49;;;;;;;0.50;0.20;;;6.10;99.90;;;;;;4989347;28;20473;-78
2023/03/04 10:17:22;;;;;;;0.50;0.10;;;6.10;99.90;;;;;;4985929;28;20497;-77
2023/03/04 10:19:56;;;;;;;0.50;0.10;;;6.10;99.90;;;;;;4977210;28;20954;-78
2023/03/04 10:22:31;;;;;;;0.50;0.10;;;6.20;99.90;;;;;;4979872;28;20455;-77
2023/03/04 10:25:14;;;;;;;0.50;0.10;;;6.20;99.90;;;;;;4986563;28;20481;-80
2023/03/04 10:27:50;;;;;;;0.50;0.10;;;6.20;99.90;;;;;;4998890;28;20516;-77
2023/03/04 10:30:30;;;;;;;0.50;0.20;;;6.30;99.90;;;;;;5010597;28;20493;-78
2023/03/04 10:32:58;;;;;;;0.90;0.63;;;6.40;99.90;;;;;;5000278;28;20511;-79
2023/03/04 10:35:36;;;;;;;0.50;0.20;;;6.40;99.90;;;;;;5000117;28;20895;-76
2023/03/04 10:38:06;;;;;;;0.50;0.10;;;6.40;99.90;;;;;;4993428;28;20464;-79
2023/03/04 10:40:39;;;;;;;0.50;0.10;;;6.50;99.90;;;;;;4989853;28;20551;-78
2023/03/04 10:43:15;;;;;;;0.50;0.10;;;6.50;99.90;;;;;;4996899;28;20467;-79
2023/03/04 10:45:43;;;;;;;0.50;0.10;;;6.50;99.90;;;;;;4998941;28;20485;-80
2023/03/04 10:48:22;;;;;;;0.50;0.10;;;6.60;99.90;;;;;;4998304;28;20831;-79
2023/03/04 10:50:52;;;;;;;0.50;0.10;;;6.70;99.90;;;;;;4998805;28;20490;-80
2023/03/04 10:53:29;;;;;;;0.50;0.10;;;6.70;99.90;;;;;;5009359;28;20514;-78
2023/03/04 10:55:57;;;;;;;0.50;0.10;;;6.80;99.90;;;;;;5010917;28;20487;-79
2023/03/04 10:58:25;;;;;;;0.50;0.20;;;6.80;99.90;;;;;;5030105;28;20451;-79
2023/03/04 11:01:01;;;;;;;0.50;0.10;;;6.80;99.90;;;;;;5032759;28;20436;-81
2023/03/04 11:03:32;;;;;;;0.73;0.30;;;6.60;99.90;;;;;;5034833;28;20462;-80
2023/03/04 11:06:12;;;;;;;0.50;0.10;;;6.50;99.90;;;;;;5034446;28;20463;-81
2023/03/04 11:08:41;;;;;;;0.50;0.10;;;6.60;99.90;;;;;;5020294;28;20523;-77
2023/03/04 11:11:30;;;;;;;0.50;0.10;;;6.60;99.90;;;;;;4996170;28;20488;-79
2023/03/04 11:14:01;;;;;;;0.50;0.10;;;6.60;99.90;;;;;;4997637;28;20554;-78
2023/03/04 11:16:33;;;;;;;0.50;0.10;;;6.70;99.90;;;;;;5025458;23;20494;-76
2023/03/04 11:19:04;;;;;;;0.50;0.10;;;;;;;;;;5009607;28;20448;-75
2023/03/04 11:21:39;;;;;;;0.50;0.10;;;6.70;99.90;;;;;;5021804;28;20518;-75
2023/03/04 11:24:12;;;;;;;0.50;0.10;;;6.80;99.90;;;;;;5034802;28;20441;-74
2023/03/04 11:27:01;;;;;;;0.50;0.20;;;6.90;99.90;;;;;;5024252;28;20563;-74
2023/03/04 11:29:34;;;;;;;0.50;0.10;;;6.90;99.90;;;;;;5014917;28;20447;-73
2023/03/04 11:32:06;;;;;;;0.50;0.10;;;;;;;;;;5014701;28;20494;-76
2023/03/04 11:34:40;;;;;;;0.70;0.47;;;6.80;99.90;;;;;;5014535;28;20463;-74
2023/03/04 11:37:16;;;;;;;0.50;0.10;;;6.80;99.90;;;;;;5019171;28;20829;-74
2023/03/04 11:39:50;;;;;;;0.50;0.10;;;6.80;99.90;;;;;;5025079;28;20448;-74
2023/03/04 11:42:29;;;;;;;0.50;0.10;;;6.90;99.90;;;;;;5014868;28;20444;-74
2023/03/04 11:44:57;;;;;;;0.50;0.30;;;;;;;;;;5014500;28;20450;-75
2023/03/04 11:47:30;;;;;;;0.50;0.10;;;;;;;;;;5022232;28;20862;-72
2023/03/04 11:50:18;;;;;;;0.60;0.50;;;6.90;99.90;;;;;;5035629;28;20823;-75
2023/03/04 11:53:13;;;;;;;0.50;0.10;;;6.90;99.90;;;;;;5024598;28;20964;-75
2023/03/04 11:55:48;;;;;;;0.50;0.10;;;6.90;99.90;;;;;;5014694;28;20476;-73
2023/03/04 11:58:35;;;;;;;1.27;1.17;;;6.90;99.90;;;;;;5016635;28;20447;-76
2023/03/04 12:01:08;;;;;;;1.20;1.10;;;6.90;99.90;;;;;;5015003;28;20448;-76
2023/03/04 12:03:56;;;;;;;0.50;0.10;;;;;;;;;;5025327;28;20452;-77
2023/03/04 12:06:35;;;;;;;0.50;0.10;;;7.00;99.90;;;;;;5034970;28;20588;-73
2023/03/04 12:09:16;;;;;;;0.50;0.10;;;7.00;99.90;;;;;;5037983;28;20454;-73
2023/03/04 12:11:52;;;;;;;0.50;0.10;;;7.10;99.90;;;;;;5030311;28;20486;-74
2023/03/04 12:14:34;;;;;;;0.50;0.10;;;7.10;99.90;;;;;;5023933;28;20451;-72
2023/03/04 12:17:33;;;;;;;0.50;0.10;;;7.10;99.90;;;;;;5017358;28;20476;-73
2023/03/04 12:20:24;;;;;;;0.50;0.10;;;7.10;99.90;;;;;;5018310;28;20447;-75
2023/03/04 12:22:58;;;;;;;0.50;0.10;;;7.20;99.90;;;;;;5027690;28;20462;-72
2023/03/04 12:25:49;;;;;;;2.87;1.23;;;7.30;99.90;;;;;;5026410;28;20937;-71
2023/03/04 12:28:31;;;;;;;0.50;0.10;;;7.30;99.90;;;;;;5024916;28;20436;-72
2023/03/04 12:31:14;;;;;;;0.50;0.10;;;7.40;99.90;;;;;;5017528;28;20486;-72
2023/03/04 12:34:00;;;;;;;0.50;0.10;;;7.40;99.90;;;;;;5017428;28;20861;-72
2023/03/04 12:36:36;;;;;;;0.50;0.10;;;7.60;99.90;;;;;;5016372;28;20463;-76
2023/03/04 12:39:18;;;;;;;0.50;0.10;;;7.80;99.90;;;;;;5015704;28;20845;-74
2023/03/04 12:42:00;;;;;;;0.50;0.10;;;7.70;99.90;;;;;;5019137;28;20447;-73
2023/03/04 12:44:34;;;;;;;0.50;0.20;;;7.70;99.90;;;;;;5035166;28;20455;-73
2023/03/04 12:47:15;;;;;;;0.50;0.10;;;7.70;99.90;;;;;;5034913;28;20466;-71
2023/03/04 12:49:54;;;;;;;0.50;0.10;;;7.70;99.90;;;;;;5034634;28;20443;-71
2023/03/04 12:52:31;;;;;;;0.50;0.10;;;7.80;99.90;;;;;;5034447;28;20516;-70
2023/03/04 12:55:04;;;;;;;0.50;0.10;;;7.80;99.90;;;;;;5023406;28;20821;-75
2023/03/04 12:57:34;;;;;;;0.50;0.10;;;8.00;99.90;;;;;;5015664;28;20965;-77
2023/03/04 13:00:16;;;;;;;0.50;0.10;;;8.00;99.90;;;;;;5022739;28;20440;-72
2023/03/04 13:03:07;;;;;;;0.80;0.77;;;8.00;99.90;;;;;;5026256;28;20459;-72
2023/03/04 13:05:47;;;;;;;0.50;0.10;;;8.10;99.90;;;;;;5026700;28;20516;-74
2023/03/04 13:08:26;;;;;;;0.50;0.10;;;8.10;99.90;;;;;;5029930;28;20855;-73
2023/03/04 13:11:00;;;;;;;0.50;0.10;;;8.10;99.90;;;;;;5017680;28;20451;-71
2023/03/04 13:13:38;;;;;;;0.50;0.10;;;8.20;99.90;;;;;;5038849;28;20445;-73
2023/03/04 13:16:27;;;;;;;0.50;0.20;;;8.00;99.90;;;;;;5028102;28;21023;-71
2023/03/04 13:18:55;;;;;;;0.50;0.10;;;7.90;99.90;;;;;;5026811;28;20494;-73
2023/03/04 13:21:25;;;;;;;3.67;1.40;;;7.80;99.90;;;;;;5033341;28;20464;-74
2023/03/04 13:23:54;;;;;;;0.60;0.27;;;7.90;99.90;;;;;;5027925;28;20452;-75
2023/03/04 13:26:31;;;;;;;0.50;0.10;;;7.80;99.90;;;;;;5031883;28;20483;-74
2023/03/04 13:29:35;;;;;;;0.50;0.10;;;7.50;99.90;;;;;;5020796;28;20440;-72
2023/03/04 13:32:09;;;;;;;0.50;0.10;;;7.50;99.90;;;;;;5015603;28;20476;-77
2023/03/04 13:34:52;;;;;;;0.50;0.10;;;7.70;99.90;;;;;;5014632;28;20455;-71
2023/03/04 13:37:32;;;;;;;0.50;0.10;;;7.70;99.90;;;;;;5033871;28;20483;-72
2023/03/04 13:40:32;;;;;;;0.50;0.10;;;7.80;99.90;;;;;;5032603;28;21126;-74
2023/03/04 13:43:26;;;;;;;0.50;0.10;;;7.80;99.90;;;;;;5034402;28;20439;-71
2023/03/04 13:45:56;;;;;;;3.97;1.03;;;7.50;99.90;;;;;;5022055;28;20554;-74
2023/03/04 13:48:28;;;;;;;0.50;0.17;;;7.50;99.90;;;;;;5013534;28;20448;-73
2023/03/04 13:50:57;;;;;;;2.50;1.00;;;7.40;99.90;;;;;;5013698;28;20433;-73
2023/03/04 13:53:44;;;;;;;32.67;2.53;;;7.30;99.90;;;;;;5013492;28;20563;-72
2023/03/04 13:56:28;;;;;;;0.50;0.20;;;7.30;99.90;;;;;;5012877;28;20990;-73
2023/03/04 13:59:13;;;;;;;0.50;0.10;;;7.40;99.90;;;;;;5013792;28;20861;-73
2023/03/04 14:01:55;;;;;;;0.50;0.10;;;7.40;99.90;;;;;;5022835;28;20464;-72
2023/03/04 14:04:27;;;;;;;0.70;0.57;;;7.40;99.90;;;;;;5024171;28;20848;-73
2023/03/04 14:06:57;;;;;;;2.10;0.47;;;7.50;99.90;;;;;;5024955;28;20471;-70
2023/03/04 14:09:27;;;;;;;0.50;0.10;;;7.50;99.90;;;;;;5018984;28;21008;-72
2023/03/04 14:11:57;;;;;;;12.10;2.47;;;7.50;99.90;;;;;;5014807;28;20480;-72
2023/03/04 14:14:27;;;;;;;0.50;0.10;;;7.60;99.90;;;;;;5014797;28;20540;-72
2023/03/04 14:16:59;;;;;;;0.70;0.37;;;7.60;99.90;;;;;;5029287;28;20498;-76
2023/03/04 14:19:30;;;;;;;0.50;0.10;;;7.60;99.90;;;;;;5032921;28;20444;-72
2023/03/04 14:22:00;;;;;;;0.50;0.10;;;7.60;99.90;;;;;;5026735;28;20464;-73
2023/03/04 14:24:30;;;;;;;1.37;0.70;;;;;;;;;;5032758;28;20528;-76
2023/03/04 14:27:05;;;;;;;0.50;0.10;;;;;;;;;;5039033;28;20873;-71
2023/03/04 14:29:33;;;;;;;2.70;0.90;;;;;;;;;;5037060;28;20933;-72
2023/03/04 14:32:05;;;;;;;0.50;0.10;;;7.40;99.90;;;;;;5027372;28;20480;-72
2023/03/04 14:34:36;;;;;;;0.50;0.10;;;6.90;99.90;;;;;;5021702;28;20447;-73
2023/03/04 14:37:05;;;;;;;0.57;0.27;;;;;;;;;;5035170;28;20467;-73
2023/03/04 14:39:35;;;;;;;0.50;0.10;;;7.50;99.90;;;;;;5035987;28;20809;-71
2023/03/04 14:42:10;;;;;;;0.50;0.20;;;7.50;99.90;;;;;;5034898;28;20448;-74
2023/03/04 14:44:44;;;;;;;0.50;0.20;;;7.50;99.90;;;;;;5035130;28;20481;-72
2023/03/04 14:47:21;;;;;;;0.50;0.10;;;7.50;99.90;;;;;;5028528;28;20464;-72
2023/03/04 14:49:49;;;;;;;0.60;0.30;;;7.50;99.90;;;;;;5023057;28;20440;-72
2023/03/04 14:52:35;;;;;;;0.50;0.10;;;7.50;99.90;;;;;;5013717;28;20490;-74
2023/03/04 14:55:21;;;;;;;0.50;0.20;;;7.40;99.90;;;;;;5013970;28;20440;-71
2023/03/04 14:57:56;;;;;;;0.50;0.10;;;7.40;99.90;;;;;;5030829;28;20554;-72
2023/03/04 15:00:29;;;;;;;0.50;0.10;;;7.40;99.90;;;;;;5034108;28;20443;-70
2023/03/04 15:03:00;;;;;;;0.50;0.10;;;7.40;99.90;;;;;;5034201;28;20491;-72
2023/03/04 15:05:34;;;;;;;0.50;0.10;;;7.40;99.90;;;;;;5020760;28;20521;-71
2023/03/04 15:08:05;;;;;;;0.97;0.97;;;7.40;99.90;;;;;;5013123;28;20455;-70
2023/03/04 15:10:35;;;;;;;0.60;0.50;;;7.40;99.90;;;;;;5012623;28;20973;-73
2023/03/04 15:13:05;;;;;;;0.50;0.10;;;;;;;;;;5017058;28;20466;-71
2023/03/04 15:15:38;;;;;;;0.50;0.10;;;7.50;99.90;;;;;;5030388;28;20483;-72
2023/03/04 15:18:24;;;;;;;0.50;0.10;;;7.50;99.90;;;;;;5018404;28;20436;-71
2023/03/04 15:20:58;;;;;;;0.50;0.10;;;7.50;99.90;;;;;;5016184;28;20965;-73
2023/03/04 15:23:27;;;;;;;0.50;0.10;;;7.50;99.90;;;;;;5027580;28;21071;-73
2023/03/04 15:25:57;;;;;;;0.50;0.10;;;7.50;99.90;;;;;;5035149;28;20802;-73
2023/03/04 15:28:27;;;;;;;0.50;0.10;;;7.50;99.90;;;;;;5034327;28;20454;-71
2023/03/04 15:30:54;;;;;;;1.63;1.53;;;7.60;99.90;;;;;;5034103;28;20451;-74
2023/03/04 15:33:24;;;;;;;0.50;0.10;;;7.70;99.90;;;;;;5034535;28;20478;-71
2023/03/04 15:35:56;;;;;;;0.50;0.10;;;7.70;99.90;;;;;;5035409;28;20514;-71
2023/03/04 15:38:25;;;;;;;0.50;0.10;;;7.70;99.90;;;;;;5035166;28;20478;-74
2023/03/04 15:40:54;;;;;;;0.50;0.10;;;7.70;99.90;;;;;;5034594;28;20443;-72
2023/03/04 15:43:23;;;;;;;0.50;0.10;;;;;;;;;;5035347;28;20458;-72
2023/03/04 15:45:52;;;;;;;0.50;0.10;;;;;;;;;;5034267;28;20601;-74
2023/03/04 15:48:20;;;;;;;0.50;0.10;;;;;;;;;;5018026;28;20658;-72
2023/03/04 15:50:54;;;;;;;0.50;0.10;;;7.70;99.90;;;;;;5035495;28;20455;-73
2023/03/04 15:53:28;;;;;;;0.50;0.10;;;7.80;99.90;;;;;;5034704;28;20483;-71
2023/03/04 15:55:56;;;;;;;0.50;0.10;;;7.70;99.90;;;;;;5041257;28;20841;-72
2023/03/04 15:58:25;;;;;;;0.50;0.10;;;7.70;99.90;;;;;;5041556;28;20443;-74
2023/03/04 16:00:52;;;;;;;0.50;0.10;;;7.70;99.90;;;;;;5042671;28;20868;-72
2023/03/04 16:03:21;;;;;;;0.90;0.30;;;;;;;;;;5039887;28;20976;-72
2023/03/04 16:05:51;;;;;;;0.50;0.13;;;7.80;99.90;;;;;;5031447;28;20466;-71
2023/03/04 16:08:21;;;;;;;0.50;0.10;;;7.70;99.90;;;;;;5023689;28;20459;-75
2023/03/04 16:10:50;;;;;;;0.50;0.20;;;7.70;99.90;;;;;;5030085;28;20811;-73
2023/03/04 16:13:20;;;;;;;0.50;0.10;;;7.70;99.90;;;;;;5024142;28;20550;-73
2023/03/04 16:15:49;;;;;;;0.50;0.10;;;7.80;99.90;;;;;;5025480;28;20510;-73
2023/03/04 16:18:17;;;;;;;0.50;0.10;;;7.80;99.90;;;;;;5024031;28;20446;-72
2023/03/04 16:20:47;;;;;;;0.50;0.10;;;7.80;99.90;;;;;;5024554;28;20441;-72
2023/03/04 16:23:20;;;;;;;0.50;0.30;;;7.80;99.90;;;;;;5020732;28;20934;-71
2023/03/04 16:25:50;;;;;;;0.50;0.10;;;7.80;99.90;;;;;;5016900;28;20468;-73
2023/03/04 16:28:18;;;;;;;0.50;0.10;;;7.80;99.90;;;;;;5018523;28;20452;-73
2023/03/04 16:30:46;;;;;;;0.50;0.10;;;7.80;99.90;;;;;;5027465;28;20435;-72
2023/03/04 16:33:15;;;;;;;0.80;0.70;;;7.80;99.90;;;;;;5033994;28;20518;-74
2023/03/04 16:35:44;;;;;;;0.50;0.10;;;7.70;99.90;;;;;;5033597;28;20467;-74
2023/03/04 16:38:21;;;;;;;2.43;2.23;;;7.70;99.90;;;;;;5035053;28;20446;-72
2023/03/04 16:40:49;;;;;;;0.90;0.80;;;7.60;99.90;;;;;;5028669;28;20458;-73
2023/03/04 16:43:17;;;;;;;0.50;0.10;;;7.50;99.90;;;;;;5016514;28;20502;-72
2023/03/04 16:45:45;;;;;;;0.50;0.10;;;;;;;;;;5015689;28;20463;-73
2023/03/04 16:48:13;;;;;;;1.40;1.30;;;7.40;99.90;;;;;;5016789;28;20444;-73
2023/03/04 16:50:41;;;;;;;6.13;1.80;;;;;;;;;;5025092;28;20458;-72
2023/03/04 16:53:24;;;;;;;0.50;0.10;;;7.50;99.90;;;;;;5036937;28;20845;-73
2023/03/04 16:55:53;;;;;;;0.60;0.53;;;;;;;;;;5037835;28;20467;-71
2023/03/04 16:58:21;;;;;;;0.60;0.20;;;;;;;;;;5038494;28;20969;-72
2023/03/04 17:00:49;;;;;;;0.50;0.10;;;;;;;;;;5038712;28;20455;-73
2023/03/04 17:03:18;;;;;;;0.73;0.73;;;;;;;;;;5039508;28;20450;-72
2023/03/04 17:05:46;;;;;;;1.87;0.60;;;7.40;99.90;;;;;;5037219;28;20808;-72
2023/03/04 17:08:14;;;;;;;0.70;0.33;;;7.50;99.90;;;;;;5037885;28;20451;-74
2023/03/04 17:10:44;;;;;;;0.50;0.10;;;;;;;;;;5037494;28;20451;-72
2023/03/04 17:13:12;;;;;;;0.50;0.10;;;;;;;;;;5038159;28;20466;-72
2023/03/04 17:18:08;;;;;;;0.60;0.37;;;;;;;;;;4973060;28;20471;-79
2023/03/04 17:20:36;;;;;;;3.17;1.03;;;7.40;99.90;;;;;;4973998;28;20446;-79
2023/03/04 17:23:04;;;;;;;0.50;0.20;;;7.30;99.90;;;;;;4975481;29;20434;-80
2023/03/04 17:25:32;;;;;;;0.83;0.67;;;;;;;;;;4976514;29;20446;-79
2023/03/04 17:28:05;;;;;;;0.50;0.10;;;7.20;99.90;;;;;;4960164;29;20476;-80
2023/03/04 17:30:33;;;;;;;0.50;0.10;;;7.20;99.90;;;;;;4957993;29;20455;-79
2023/03/04 17:33:01;;;;;;;0.50;0.10;;;;;;;;;;4959951;29;20456;-78
2023/03/04 17:35:29;;;;;;;1.13;0.70;;;;;;;;;;4959896;29;20487;-78